Have a Safe July 4th! 

Flight Track Log - Related Links

Times and Time Zones

All times are in EDT time to prevent confusion due to time zone crossing. See the WBR2634 flight status page for this flight to view local times or setup timezone preferences in your user account.

Time Position Orientation Groundspeed Altitude Reporting Facility
EDT Latitude Longitude Course Direction KTS MPH feet Rate Location/Type
Thu 05:46:31 PM 40.7689 -91.0797 73° East 115 132 2,300  Level Chicago Center
Thu 05:47:33 PM 40.7858 -91.0403 60° Northeast 123 142 3,200 823 Climbing Chicago Center
Thu 05:48:00 PM 40.8574 -90.7852 57° Northeast  Level FlightAware Approximate
Thu 05:48:35 PM 40.8022 -90.9967 64° Northeast 128 147 4,000  Level Chicago Center
Thu 05:49:00 PM 40.8714 -90.7310 72° East  Level FlightAware Approximate
Thu 05:49:37 PM 40.8239 -90.9431 62° Northeast 135 155 4,900  Level Chicago Center
Thu 05:50:00 PM 40.8853 -90.6750 73° East  Level FlightAware Approximate
Thu 05:50:39 PM 40.8408 -90.8981 64° Northeast 138 159 5,600  Level Chicago Center
Thu 05:51:00 PM 40.8984 -90.6187 73° East  Level FlightAware Approximate
Thu 05:51:41 PM 40.8522 -90.8475 73° East 142 163 6,400  Level Chicago Center
Thu 05:52:43 PM 40.8644 -90.7989 72° East 141 162 7,100 677 Climbing Chicago Center
Thu 05:53:45 PM 40.8781 -90.7478 71° East 144 166 7,800 677 Climbing Chicago Center
Thu 05:54:47 PM 40.8911 -90.6969 71° East 148 170 8,500 581 Climbing Chicago Center
Thu 05:55:49 PM 40.9067 -90.6333 72° East 150 173 9,000 290 Climbing Chicago Center
Thu 05:56:51 PM 40.9211 -90.5761 72° East 163 188 9,100 48 Climbing Chicago Center
Thu 05:57:54 PM 40.9353 -90.5167 72° East 169 194 9,100 -48 Level Chicago Center
Thu 05:58:56 PM 40.9486 -90.4556 74° East 172 198 9,000  Descending Chicago Center
Thu 05:59:58 PM 40.9647 -90.3978 70° East 169 194 9,100  Climbing Chicago Center
Thu 06:01:00 PM 40.9908 -90.3436 57° Northeast 173 199 9,000 -48 Descending Chicago Center
Thu 06:02:02 PM 41.0169 -90.2761 63° Northeast 172 198 9,000  Level Chicago Center
Thu 06:03:04 PM 41.0353 -90.2186 67° East 171 197 9,000  Level Chicago Center
Thu 06:04:06 PM 41.0556 -90.1622 64° Northeast 169 194 9,000 -97 Level Chicago Center
Thu 06:05:08 PM 41.0758 -90.1056 65° Northeast 170 196 8,800 -339 Descending Chicago Center
Thu 06:06:10 PM 41.0992 -90.0431 64° Northeast 184 212 8,300 -384 Descending Chicago Center
Thu 06:07:13 PM 41.1231 -89.9803 63° Northeast 189 217 8,000 -144 Descending Chicago Center
Thu 06:08:15 PM 41.1447 -89.9219 64° Northeast 181 208 8,000  Level Chicago Center
Thu 06:09:17 PM 41.1692 -89.8536 65° Northeast 173 199 8,000  Level Chicago Center
Thu 06:10:19 PM 41.1908 -89.7967 63° Northeast 173 199 8,000 48 Level Chicago Center
Thu 06:11:21 PM 41.2100 -89.7403 66° East 170 196 8,100  Climbing Chicago Center
Thu 06:12:23 PM 41.2300 -89.6833 65° Northeast 169 194 8,000 -48 Descending Chicago Center
Thu 06:13:25 PM 41.2519 -89.6269 63° Northeast 171 197 8,000  Level Chicago Center
Thu 06:14:27 PM 41.2725 -89.5719 64° Northeast 167 192 8,000  Level Chicago Center
Thu 06:15:29 PM 41.2953 -89.5031 66° East 168 193 8,000  Level Chicago Center
Thu 06:16:32 PM 41.3167 -89.4461 63° Northeast 171 197 8,000  Level Chicago Center
Thu 06:17:34 PM 41.3372 -89.3919 63° Northeast 166 191 8,000  Level Chicago Center
Thu 06:18:36 PM 41.3567 -89.3353 65° Northeast 167 192 8,000 48 Level Chicago Center
Thu 06:19:38 PM 41.3772 -89.2781 64° Northeast 170 196 8,100  Climbing Chicago Center
Thu 06:20:40 PM 41.3981 -89.2206 64° Northeast 171 197 8,000 -48 Descending Chicago Center
Thu 06:21:42 PM 41.4206 -89.1594 64° Northeast 167 192 8,000  Level Chicago Center
Thu 06:22:44 PM 41.4392 -89.1011 67° East 170 196 8,000  Level Chicago Center
Thu 06:23:46 PM 41.4606 -89.0469 62° Northeast 168 193 8,000 48 Level Chicago Center
Thu 06:24:48 PM 41.4861 -88.9792 63° Northeast 171 197 8,100  Climbing Chicago Center
Thu 06:25:50 PM 41.5050 -88.9228 66° East 170 196 8,000 -48 Descending Chicago Center
Thu 06:26:53 PM 41.5250 -88.8656 65° Northeast 170 196 8,000  Level Chicago Center
Thu 06:28:57 PM 41.5650 -88.7508 65° Northeast 172 198 8,000  Level Chicago Center
Thu 06:29:59 PM 41.5886 -88.6817 65° Northeast 173 199 8,000  Level Chicago Center
Thu 06:31:01 PM 41.6108 -88.6264 62° Northeast 171 197 8,000 48 Level Chicago Center
Thu 06:32:03 PM 41.6372 -88.5722 57° Northeast 174 200 8,100 48 Climbing Chicago Center
Thu 06:33:05 PM 41.6636 -88.5192 56° Northeast 173 199 8,100  Level Chicago Center
Thu 06:34:07 PM 41.6881 -88.4661 58° Northeast 169 194 8,100 -48 Level Chicago Center
Thu 06:35:10 PM 41.7281 -88.4111 46° Northeast 172 198 8,000 -48 Descending Chicago Center
Thu 06:36:12 PM 41.7533 -88.3594 57° Northeast 169 194 8,000 -242 Level Chicago Center
Thu 06:37:14 PM 41.7722 -88.2997 67° East 177 204 7,500 -432 Descending Chicago Center
Thu 06:38:17 PM 41.7950 -88.2367 64° Northeast 188 216 7,100 -242 Descending Chicago Center
Thu 06:39:18 PM 41.8197 -88.1772 61° Northeast 186 214 7,000 -49 Descending Chicago Center
Thu 06:40:20 PM 41.8389 -88.1181 66° East 178 205 7,000  Level Chicago Center
Thu 06:41:22 PM 41.8636 -88.0506 64° Northeast 170 196 7,000  Level Chicago Center
Thu 06:42:12 PM 41.8833 -88.0000 62° Northeast 172 198 7,000 55 Level Chicago TRACON
Thu 06:43:12 PM 41.8833 -87.9333 90° East 175 201 7,100  Climbing Chicago TRACON
Thu 06:44:29 PM 41.8881 -87.8639 85° East 173 199 7,000 -345 Descending Chicago Center
Thu 06:45:31 PM 41.8875 -87.7994 91° East 173 199 6,300 -968 Descending Chicago Center
Thu 06:46:33 PM 41.8889 -87.7158 89° East 183 211 5,000 -1,113 Descending Chicago Center
Thu 06:47:35 PM 41.9331 -87.7100 North 185 213 4,000 -1,016 Descending Chicago Center
Thu 06:48:37 PM 41.9589 -87.7564 307° West 169 194 2,900 -1,016 Descending Chicago Center
Thu 06:49:39 PM 41.9697 -87.8103 285° West 159 183 1,900 -871 Descending Chicago Center
Thu 06:50:41 PM 41.9681 -87.8633 268° West 149 171 1,100 -774 Descending Chicago Center
Thu 06:52:00 PM 41.9667 -87.9000 314° West  Level FlightAware Approximate

Login

Don't have an account? Register now (free) for customized features, flight alerts, and more!